Time;durP1;ratioP1;P1;durP2;ratioP2;P2;SDS_P1;SDS_P2;PMS_P1;PMS_P2;Temp;Humidity;BMP_temperature;BMP_pressure;BME280_temperature;BME280_humidity;BME280_pressure;Samples;Min_cycle;Max_cycle;Signal;HPM_P1;HPM_P2
2023/09/30 00:00:12;;;;;;;5.10;1.97;;;17.30;1.00;;;;;;5107702;27;20464;-76
2023/09/30 00:02:39;;;;;;;2.80;1.93;;;17.30;1.00;;;;;;5090151;28;20668;-76
2023/09/30 00:05:10;;;;;;;2.70;1.50;;;17.30;1.00;;;;;;5105175;27;20453;-75
2023/09/30 00:07:37;;;;;;;2.67;1.93;;;17.20;1.00;;;;;;5092517;28;20484;-75
2023/09/30 00:10:04;;;;;;;3.80;1.93;;;17.30;1.00;;;;;;5109056;27;20512;-75
2023/09/30 00:12:33;;;;;;;2.37;1.30;;;17.30;1.00;;;;;;5096071;27;20465;-74
2023/09/30 00:15:00;;;;;;;3.03;1.70;;;17.30;1.00;;;;;;5112936;27;20465;-74
2023/09/30 00:17:28;;;;;;;6.00;2.57;;;17.30;1.00;;;;;;5112732;27;20523;-74
2023/09/30 00:19:55;;;;;;;4.97;2.20;;;17.30;1.00;;;;;;5101319;27;20457;-75
2023/09/30 00:22:22;;;;;;;2.77;1.90;;;17.40;1.00;;;;;;5115419;27;20511;-75
2023/09/30 00:24:49;;;;;;;7.30;2.90;;;17.40;1.00;;;;;;5106255;27;20489;-74
2023/09/30 00:27:16;;;;;;;4.43;2.57;;;17.30;1.00;;;;;;5105255;27;20577;-76
2023/09/30 00:29:43;;;;;;;4.60;2.47;;;17.20;1.00;;;;;;5102183;27;20464;-75
2023/09/30 00:32:10;;;;;;;5.17;2.73;;;17.20;1.00;;;;;;5114095;27;20469;-74
2023/09/30 00:34:40;;;;;;;4.80;2.90;;;17.10;1.00;;;;;;5112734;27;20462;-75
2023/09/30 00:37:07;;;;;;;5.70;2.20;;;17.00;1.00;;;;;;5104119;27;20531;-73
2023/09/30 00:39:34;;;;;;;5.20;2.73;;;16.90;1.00;;;;;;5113125;27;20548;-74
2023/09/30 00:42:01;;;;;;;5.93;3.13;;;16.80;1.00;;;;;;5114108;27;20525;-76
2023/09/30 00:44:28;;;;;;;9.63;3.47;;;16.80;1.00;;;;;;5114177;27;20459;-75
2023/09/30 00:47:01;;;;;;;5.00;2.37;;;16.70;1.00;;;;;;5115924;27;20530;-74
2023/09/30 00:49:29;;;;;;;6.73;2.87;;;16.60;1.00;;;;;;5107086;27;20513;-77
2023/09/30 00:51:58;;;;;;;6.70;3.03;;;16.60;1.00;;;;;;5109428;27;20963;-74
2023/09/30 00:54:26;;;;;;;7.07;3.03;;;16.50;1.00;;;;;;5118121;27;20544;-75
2023/09/30 00:56:56;;;;;;;6.63;3.07;;;16.50;1.00;;;;;;5114467;27;21104;-73
2023/09/30 00:59:25;;;;;;;5.73;2.83;;;16.50;1.00;;;;;;5111307;27;20497;-75
2023/09/30 01:01:52;;;;;;;9.07;2.47;;;16.50;1.00;;;;;;5113949;27;20479;-76
2023/09/30 01:04:20;;;;;;;8.43;2.97;;;16.40;1.00;;;;;;5110771;27;20477;-75
2023/09/30 01:06:48;;;;;;;4.83;2.67;;;16.40;1.00;;;;;;5115785;27;20484;-76
2023/09/30 01:09:17;;;;;;;5.00;2.47;;;16.30;1.00;;;;;;5110553;27;20468;-75
2023/09/30 01:11:44;;;;;;;6.00;3.53;;;16.20;1.00;;;;;;5113053;27;20545;-75
2023/09/30 01:14:25;;;;;;;13.20;4.17;;;16.20;1.00;;;;;;5113142;27;20562;-75
2023/09/30 01:16:52;;;;;;;5.33;2.93;;;16.10;1.00;;;;;;5110621;27;20494;-75
2023/09/30 01:19:19;;;;;;;7.50;3.20;;;16.10;1.00;;;;;;5107956;27;20560;-76
2023/09/30 01:21:48;;;;;;;8.10;3.23;;;16.00;1.00;;;;;;5092652;27;20457;-75
2023/09/30 01:24:15;;;;;;;9.40;3.40;;;16.00;1.00;;;;;;5108029;27;20819;-75
2023/09/30 01:26:43;;;;;;;8.10;3.40;;;15.90;1.00;;;;;;5102562;27;20467;-74
2023/09/30 01:29:11;;;;;;;8.20;3.27;;;15.90;1.00;;;;;;5088507;27;21636;-75
2023/09/30 01:31:38;;;;;;;9.17;4.00;;;15.90;1.00;;;;;;5090123;28;20486;-76
2023/09/30 01:34:05;;;;;;;5.00;2.40;;;15.80;1.00;;;;;;5108682;27;20516;-75
2023/09/30 01:36:32;;;;;;;10.63;6.83;;;15.80;1.00;;;;;;5109680;27;20518;-75
2023/09/30 01:39:04;;;;;;;9.87;3.13;;;15.80;1.00;;;;;;5112235;27;20518;-74
2023/09/30 01:41:31;;;;;;;8.70;3.60;;;15.70;1.00;;;;;;5114066;27;20468;-75
2023/09/30 01:43:58;;;;;;;6.60;3.60;;;15.70;1.00;;;;;;5112533;27;20529;-72
2023/09/30 01:46:25;;;;;;;9.03;3.20;;;15.70;1.00;;;;;;5113119;27;20513;-74
2023/09/30 01:48:52;;;;;;;5.90;3.53;;;15.70;1.00;;;;;;5105675;27;20457;-75
2023/09/30 01:51:19;;;;;;;6.40;3.20;;;15.70;1.00;;;;;;5095086;27;20459;-74
2023/09/30 01:53:46;;;;;;;10.13;3.60;;;15.60;1.00;;;;;;5109573;27;20445;-74
2023/09/30 01:56:14;;;;;;;5.03;3.40;;;15.60;1.00;;;;;;5113869;27;20945;-75
2023/09/30 01:58:41;;;;;;;9.17;3.07;;;15.60;1.00;;;;;;5101141;27;20523;-75
2023/09/30 02:01:08;;;;;;;6.50;3.10;;;15.50;1.00;;;;;;5110038;27;20584;-76
2023/09/30 02:03:36;;;;;;;12.90;3.87;;;15.50;1.00;;;;;;5108224;27;20464;-75
2023/09/30 02:06:03;;;;;;;5.93;3.00;;;15.50;1.00;;;;;;5104965;27;20483;-75
2023/09/30 02:08:30;;;;;;;5.97;3.10;;;15.50;1.00;;;;;;5094286;27;20449;-75
2023/09/30 02:10:57;;;;;;;8.13;3.33;;;15.50;1.00;;;;;;5100967;27;20607;-75
2023/09/30 02:13:25;;;;;;;7.27;3.63;;;15.40;1.00;;;;;;5110302;27;20444;-73
2023/09/30 02:15:55;;;;;;;8.30;3.60;;;15.40;1.00;;;;;;5109732;27;20473;-74
2023/09/30 02:18:23;;;;;;;7.80;3.53;;;15.40;1.00;;;;;;5093167;27;20464;-75
2023/09/30 02:20:50;;;;;;;8.90;3.80;;;15.30;1.00;;;;;;5111783;27;21272;-75
2023/09/30 02:23:18;;;;;;;9.47;4.03;;;15.30;1.00;;;;;;5109600;27;20487;-74
2023/09/30 02:25:45;;;;;;;8.07;3.80;;;15.20;1.00;;;;;;5101190;27;20485;-74
2023/09/30 02:28:12;;;;;;;6.20;3.13;;;15.20;1.00;;;;;;5109089;27;20547;-75
2023/09/30 02:30:41;;;;;;;9.37;3.17;;;15.20;1.00;;;;;;5113656;27;20473;-75
2023/09/30 02:33:08;;;;;;;6.90;3.53;;;15.10;1.00;;;;;;5110551;27;20451;-75
2023/09/30 02:35:35;;;;;;;8.83;4.47;;;15.10;1.00;;;;;;5098916;27;21063;-75
2023/09/30 02:38:02;;;;;;;6.73;3.37;;;15.10;1.00;;;;;;5106141;27;20425;-75
2023/09/30 02:40:29;;;;;;;8.80;4.13;;;15.10;1.00;;;;;;5110124;27;20980;-74
2023/09/30 02:42:56;;;;;;;6.33;3.30;;;15.10;1.00;;;;;;5099736;27;21037;-72
2023/09/30 02:45:23;;;;;;;11.13;3.53;;;15.10;1.00;;;;;;5104557;27;20546;-76
2023/09/30 02:47:51;;;;;;;6.83;3.40;;;15.00;1.00;;;;;;5113135;27;20480;-74
2023/09/30 02:50:18;;;;;;;7.53;3.70;;;15.00;1.00;;;;;;5107337;27;20478;-76
2023/09/30 02:52:45;;;;;;;10.97;3.80;;;15.00;1.00;;;;;;5104973;27;20448;-74
2023/09/30 02:55:12;;;;;;;8.70;3.80;;;15.00;1.00;;;;;;5103564;27;20483;-74
2023/09/30 02:57:40;;;;;;;11.20;4.03;;;15.00;1.00;;;;;;5109427;27;20878;-75
2023/09/30 03:00:14;;;;;;;6.93;4.00;;;15.00;1.00;;;;;;5106535;27;20552;-76
2023/09/30 03:02:41;;;;;;;9.93;4.57;;;15.00;1.00;;;;;;5098395;27;20467;-75
2023/09/30 03:05:13;;;;;;;10.10;5.00;;;15.00;1.00;;;;;;5111055;27;20470;-74
2023/09/30 03:07:41;;;;;;;10.70;3.80;;;14.90;1.00;;;;;;5110987;27;20452;-72
2023/09/30 03:10:09;;;;;;;7.90;3.97;;;14.90;1.00;;;;;;5107055;27;20548;-77
2023/09/30 03:12:37;;;;;;;8.77;3.57;;;14.90;1.00;;;;;;5110522;27;20811;-73
2023/09/30 03:15:04;;;;;;;7.93;3.97;;;14.90;1.00;;;;;;5107993;27;20563;-75
2023/09/30 03:17:33;;;;;;;8.83;3.20;;;14.90;1.00;;;;;;5110223;27;20569;-73
2023/09/30 03:20:01;;;;;;;9.10;3.97;;;14.90;1.00;;;;;;5101493;27;20463;-75
2023/09/30 03:22:30;;;;;;;12.00;3.93;;;14.80;1.00;;;;;;5100546;27;20456;-75
2023/09/30 03:24:57;;;;;;;8.50;3.60;;;14.80;1.00;;;;;;5100628;27;20484;-75
2023/09/30 03:27:24;;;;;;;10.80;4.80;;;14.80;1.00;;;;;;5114122;27;20483;-73
2023/09/30 03:29:51;;;;;;;11.40;4.67;;;14.80;1.00;;;;;;5101082;27;20468;-75
2023/09/30 03:32:18;;;;;;;13.10;4.80;;;14.80;1.00;;;;;;5107147;27;20965;-75
2023/09/30 03:34:46;;;;;;;7.97;4.43;;;14.80;1.00;;;;;;5107621;27;20519;-75
2023/09/30 03:37:14;;;;;;;9.27;3.90;;;14.80;1.00;;;;;;5112417;27;21036;-74
2023/09/30 03:39:42;;;;;;;11.87;4.53;;;14.80;1.00;;;;;;5117761;27;20471;-74
2023/09/30 03:42:11;;;;;;;11.80;4.13;;;14.70;1.00;;;;;;5109876;27;21273;-76
2023/09/30 03:44:38;;;;;;;7.80;4.20;;;14.70;1.00;;;;;;5107473;27;20487;-73
2023/09/30 03:47:07;;;;;;;7.50;3.80;;;14.70;1.00;;;;;;5113973;27;20483;-73
2023/09/30 03:49:34;;;;;;;9.70;4.13;;;14.70;1.00;;;;;;5111949;27;20457;-74
2023/09/30 03:52:01;;;;;;;10.60;4.37;;;14.70;1.00;;;;;;5117381;27;20455;-74
2023/09/30 03:54:28;;;;;;;12.10;4.23;;;14.70;1.00;;;;;;5120577;27;20843;-74
2023/09/30 03:56:56;;;;;;;12.67;4.07;;;14.70;1.00;;;;;;5114951;27;20955;-75
2023/09/30 03:59:23;;;;;;;10.93;4.00;;;14.60;1.00;;;;;;5118298;27;20629;-74
2023/09/30 04:01:50;;;;;;;8.30;4.30;;;14.60;1.00;;;;;;5113915;27;20496;-76
2023/09/30 04:04:18;;;;;;;8.90;4.37;;;14.60;1.00;;;;;;5104241;27;21174;-75
2023/09/30 04:06:47;;;;;;;10.33;4.73;;;14.60;1.00;;;;;;5101820;27;20479;-73
2023/09/30 04:09:16;;;;;;;9.83;4.50;;;14.60;1.00;;;;;;5096016;27;20539;-75
2023/09/30 04:11:43;;;;;;;8.70;4.07;;;14.60;1.00;;;;;;5097354;27;20907;-75
2023/09/30 04:14:11;;;;;;;11.53;4.60;;;14.60;1.00;;;;;;5111003;27;20472;-73
2023/09/30 04:16:38;;;;;;;12.00;4.20;;;14.60;1.00;;;;;;5114572;27;21001;-75
2023/09/30 04:19:07;;;;;;;11.30;4.37;;;14.50;1.00;;;;;;5115070;27;20595;-73
2023/09/30 04:21:34;;;;;;;8.57;4.67;;;14.50;1.00;;;;;;5112007;27;20475;-74
2023/09/30 04:24:01;;;;;;;7.10;4.10;;;14.50;1.00;;;;;;5113910;27;20568;-75
2023/09/30 04:26:29;;;;;;;14.10;5.07;;;14.50;1.00;;;;;;5107231;27;20507;-76
2023/09/30 04:28:56;;;;;;;8.47;4.27;;;14.50;1.00;;;;;;5102919;27;21481;-74
2023/09/30 04:31:25;;;;;;;9.60;4.93;;;14.40;1.00;;;;;;5102703;27;20448;-74
2023/09/30 04:33:52;;;;;;;8.27;4.17;;;14.40;1.00;;;;;;5097211;27;20477;-74
2023/09/30 04:36:19;;;;;;;11.93;5.40;;;14.30;1.00;;;;;;5093653;28;20809;-74
2023/09/30 04:38:47;;;;;;;11.53;4.97;;;14.40;1.00;;;;;;5091793;28;20584;-73
2023/09/30 04:41:15;;;;;;;15.40;5.67;;;14.30;1.00;;;;;;5111189;27;20847;-73
2023/09/30 04:43:43;;;;;;;17.43;4.87;;;14.30;1.00;;;;;;5114617;27;20541;-75
2023/09/30 04:46:12;;;;;;;10.80;5.03;;;14.30;1.00;;;;;;5106108;27;21771;-75
2023/09/30 04:48:40;;;;;;;10.23;5.43;;;14.30;1.00;;;;;;5109407;27;20469;-75
2023/09/30 04:51:08;;;;;;;12.70;5.13;;;14.30;1.00;;;;;;5108506;27;20491;-74
2023/09/30 04:53:35;;;;;;;10.20;4.63;;;14.20;1.00;;;;;;5111751;27;20491;-75
2023/09/30 04:56:03;;;;;;;12.77;5.27;;;14.20;1.00;;;;;;5108059;27;20647;-73
2023/09/30 04:58:31;;;;;;;8.33;4.70;;;14.20;1.00;;;;;;5105789;27;20460;-74
2023/09/30 05:00:58;;;;;;;8.57;4.67;;;14.20;1.00;;;;;;5090289;28;20969;-74
2023/09/30 05:03:25;;;;;;;9.23;4.00;;;14.20;1.00;;;;;;5096705;27;20606;-72
2023/09/30 05:05:55;;;;;;;10.37;4.77;;;14.20;1.00;;;;;;5101953;27;20483;-73
2023/09/30 05:08:23;;;;;;;9.07;4.40;;;14.20;1.00;;;;;;5109235;27;20989;-74
2023/09/30 05:10:50;;;;;;;11.60;4.57;;;14.20;1.00;;;;;;5113169;27;20660;-73
2023/09/30 05:13:17;;;;;;;11.97;5.27;;;14.10;1.00;;;;;;5113520;27;20560;-75
2023/09/30 05:15:44;;;;;;;9.17;4.47;;;14.10;1.00;;;;;;5109589;27;20994;-74
2023/09/30 05:18:11;;;;;;;11.00;4.10;;;14.10;1.00;;;;;;5114904;27;20549;-75
2023/09/30 05:20:38;;;;;;;8.93;4.20;;;14.10;1.00;;;;;;5113833;27;20478;-74
2023/09/30 05:23:07;;;;;;;11.63;4.60;;;14.10;1.00;;;;;;5117358;27;20487;-74
2023/09/30 05:25:35;;;;;;;11.83;4.50;;;14.10;1.00;;;;;;5114282;27;20857;-74
2023/09/30 05:28:01;;;;;;;11.77;4.87;;;14.10;1.00;;;;;;5097795;27;20881;-75
2023/09/30 05:30:29;;;;;;;6.67;4.07;;;14.10;1.00;;;;;;5108312;27;20461;-76
2023/09/30 05:32:56;;;;;;;10.33;4.10;;;14.10;1.00;;;;;;5094261;27;20576;-76
2023/09/30 05:35:23;;;;;;;9.60;4.00;;;14.10;1.00;;;;;;5086472;28;20535;-76
2023/09/30 05:37:52;;;;;;;11.67;4.60;;;14.20;1.00;;;;;;5101471;27;20473;-75
2023/09/30 05:40:24;;;;;;;10.50;4.57;;;14.20;1.00;;;;;;5103969;27;20467;-75
2023/09/30 05:42:53;;;;;;;13.50;4.67;;;14.20;1.00;;;;;;5088842;27;20574;-74
2023/09/30 05:45:20;;;;;;;10.83;4.90;;;14.20;1.00;;;;;;5112725;27;20963;-76
2023/09/30 05:47:47;;;;;;;12.10;4.80;;;14.20;1.00;;;;;;5111540;27;20557;-77
2023/09/30 05:50:15;;;;;;;10.83;4.63;;;14.20;1.00;;;;;;5109966;27;20865;-75
2023/09/30 05:52:43;;;;;;;13.97;4.47;;;14.30;1.00;;;;;;5109982;27;20491;-76
2023/09/30 05:55:10;;;;;;;9.33;4.30;;;14.30;1.00;;;;;;5106996;27;20526;-75
2023/09/30 05:57:39;;;;;;;8.03;4.23;;;14.40;1.00;;;;;;5102914;27;20465;-73
2023/09/30 06:00:20;;;;;;;11.60;5.17;;;14.40;1.00;;;;;;5106327;27;20454;-75
2023/09/30 06:02:48;;;;;;;9.43;4.70;;;14.50;1.00;;;;;;5112770;27;20578;-76
2023/09/30 06:05:18;;;;;;;10.93;5.07;;;14.60;1.00;;;;;;5106364;27;20949;-75
2023/09/30 06:07:45;;;;;;;9.73;5.00;;;14.70;1.00;;;;;;5107898;27;20565;-74
2023/09/30 06:10:18;;;;;;;13.70;5.13;;;14.80;1.00;;;;;;5104298;27;20472;-73
2023/09/30 06:12:47;;;;;;;16.77;4.83;;;14.90;1.00;;;;;;5105682;27;20541;-73
2023/09/30 06:15:14;;;;;;;12.07;4.57;;;15.00;1.00;;;;;;5106927;27;20979;-74
2023/09/30 06:17:41;;;;;;;15.23;4.30;;;15.10;1.00;;;;;;5106483;27;20931;-76
2023/09/30 06:20:15;;;;;;;8.43;5.13;;;15.10;1.00;;;;;;5107930;27;20544;-75
2023/09/30 06:22:43;;;;;;;13.20;4.37;;;15.20;1.00;;;;;;5105627;27;20962;-75
2023/09/30 06:25:10;;;;;;;11.50;4.70;;;15.30;1.00;;;;;;5110010;27;20938;-76
2023/09/30 06:27:38;;;;;;;7.60;4.00;;;15.30;1.00;;;;;;5110054;27;20913;-75
2023/09/30 06:30:08;;;;;;;12.90;4.37;;;15.30;1.00;;;;;;5108340;27;20472;-75
2023/09/30 06:32:35;;;;;;;10.73;4.67;;;15.40;1.00;;;;;;5096380;27;20473;-76
2023/09/30 06:35:03;;;;;;;7.67;4.53;;;15.40;1.00;;;;;;5105804;27;20458;-75
2023/09/30 06:37:30;;;;;;;12.20;4.57;;;15.50;1.00;;;;;;5108855;27;20477;-75
2023/09/30 06:39:57;;;;;;;10.60;4.90;;;15.50;1.00;;;;;;5111331;27;20595;-76
2023/09/30 06:42:26;;;;;;;10.73;4.40;;;15.50;1.00;;;;;;5109847;27;20546;-77
2023/09/30 06:44:54;;;;;;;10.23;4.33;;;15.50;1.00;;;;;;5107431;27;21307;-75
2023/09/30 06:47:22;;;;;;;10.83;4.63;;;15.50;1.00;;;;;;5112222;27;20459;-75
2023/09/30 06:49:49;;;;;;;9.10;4.00;;;15.50;1.00;;;;;;5108732;27;20467;-74
2023/09/30 06:52:17;;;;;;;7.10;4.00;;;15.50;1.00;;;;;;5109784;27;20469;-75
2023/09/30 06:54:43;;;;;;;11.83;4.27;;;15.60;1.00;;;;;;5111759;27;20472;-75
2023/09/30 06:57:10;;;;;;;7.93;3.87;;;15.70;1.00;;;;;;5094999;27;20489;-75
2023/09/30 06:59:38;;;;;;;11.17;4.10;;;15.70;1.00;;;;;;5103843;27;20858;-73
2023/09/30 07:02:05;;;;;;;10.80;4.10;;;15.80;1.00;;;;;;5100782;27;20475;-77
2023/09/30 07:04:33;;;;;;;8.73;4.00;;;15.80;1.00;;;;;;5112791;27;20548;-76
2023/09/30 07:07:00;;;;;;;9.43;4.27;;;15.80;1.00;;;;;;5103279;27;20564;-74
2023/09/30 07:09:27;;;;;;;9.10;4.90;;;15.90;1.00;;;;;;5109676;27;20570;-74
2023/09/30 07:11:55;;;;;;;9.53;4.67;;;15.90;1.00;;;;;;5112199;27;21318;-72
2023/09/30 07:14:22;;;;;;;9.50;4.00;;;15.90;1.00;;;;;;5096862;27;20460;-75
2023/09/30 07:16:49;;;;;;;13.20;4.23;;;15.90;1.00;;;;;;5112575;27;22117;-76
2023/09/30 07:19:16;;;;;;;12.13;4.83;;;16.00;1.00;;;;;;5109581;27;20960;-78
2023/09/30 07:21:46;;;;;;;11.00;4.50;;;16.20;1.00;;;;;;5089226;28;20660;-74
2023/09/30 07:24:14;;;;;;;10.50;4.67;;;16.30;1.00;;;;;;5092916;28;20454;-75
2023/09/30 07:26:43;;;;;;;10.43;5.03;;;16.30;1.00;;;;;;5099684;27;20558;-77
2023/09/30 07:29:10;;;;;;;10.00;4.23;;;16.40;1.00;;;;;;5107043;27;20476;-76
2023/09/30 07:31:38;;;;;;;10.30;4.60;;;16.50;1.00;;;;;;5098880;27;20499;-76
2023/09/30 07:34:06;;;;;;;10.30;4.13;;;16.60;1.00;;;;;;5099513;27;21197;-77
2023/09/30 07:36:33;;;;;;;9.37;4.77;;;16.70;1.00;;;;;;5104016;27;20460;-77
2023/09/30 07:39:01;;;;;;;11.03;4.10;;;16.70;1.00;;;;;;5105970;27;20649;-75
2023/09/30 07:41:28;;;;;;;11.73;6.97;;;16.60;1.00;;;;;;5094870;28;20552;-76
2023/09/30 07:43:55;;;;;;;14.40;4.77;;;16.70;1.00;;;;;;5091260;28;20535;-75
2023/09/30 07:46:22;;;;;;;9.00;4.00;;;16.80;1.00;;;;;;5116446;27;21055;-74
2023/09/30 07:48:49;;;;;;;9.77;3.83;;;16.90;1.00;;;;;;5110921;27;20553;-76
2023/09/30 07:51:16;;;;;;;8.70;3.90;;;16.90;1.00;;;;;;5113778;27;21030;-69
2023/09/30 07:53:43;;;;;;;7.30;4.67;;;16.90;1.00;;;;;;5111292;27;20438;-69
2023/09/30 07:56:11;;;;;;;6.67;4.30;;;16.90;1.00;;;;;;5094226;28;20513;-71
2023/09/30 07:58:38;;;;;;;7.70;3.87;;;16.90;1.00;;;;;;5105238;27;20462;-68
2023/09/30 08:01:05;;;;;;;35.90;24.30;;;16.90;1.00;;;;;;5114442;27;20475;-71
2023/09/30 08:03:32;;;;;;;11.03;4.97;;;16.80;1.00;;;;;;5110738;27;20472;-70
2023/09/30 08:05:59;;;;;;;8.87;4.20;;;16.80;1.00;;;;;;5115739;27;20548;-70
2023/09/30 08:08:26;;;;;;;10.30;5.03;;;16.80;1.00;;;;;;5101403;27;20592;-72
2023/09/30 08:10:55;;;;;;;8.27;4.00;;;16.90;1.00;;;;;;5107221;27;20575;-70
2023/09/30 08:13:26;;;;;;;9.27;4.07;;;17.00;1.00;;;;;;5108798;27;20899;-69
2023/09/30 08:15:53;;;;;;;9.83;4.17;;;16.90;1.00;;;;;;5103014;27;20448;-72
2023/09/30 08:18:20;;;;;;;11.20;5.13;;;16.90;1.00;;;;;;5094412;27;20460;-69
2023/09/30 08:20:49;;;;;;;10.20;4.03;;;17.00;1.00;;;;;;5119435;27;20496;-69
2023/09/30 08:23:15;;;;;;;8.53;4.90;;;17.10;1.00;;;;;;5112637;27;20461;-68
2023/09/30 08:25:42;;;;;;;9.30;3.80;;;17.20;1.00;;;;;;5108687;27;20930;-69
2023/09/30 08:28:09;;;;;;;8.63;3.73;;;17.30;1.00;;;;;;5114485;27;21009;-70
2023/09/30 08:30:38;;;;;;;10.93;6.90;;;17.40;1.00;;;;;;5114548;27;20859;-74
2023/09/30 08:33:07;;;;;;;6.40;4.10;;;17.60;1.00;;;;;;5113806;27;20487;-70
2023/09/30 08:35:37;;;;;;;9.43;4.67;;;17.70;1.00;;;;;;5114357;27;20461;-69
2023/09/30 08:38:05;;;;;;;9.93;3.70;;;18.00;1.00;;;;;;5101955;27;20445;-70
2023/09/30 08:40:32;;;;;;;12.70;4.50;;;18.30;1.00;;;;;;5109380;27;20603;-68
2023/09/30 08:42:59;;;;;;;8.00;3.87;;;18.50;1.00;;;;;;5118929;27;20463;-69
2023/09/30 08:45:30;;;;;;;9.37;3.50;;;18.50;1.00;;;;;;5117611;27;20547;-71
2023/09/30 08:48:05;;;;;;;11.23;4.30;;;18.80;1.00;;;;;;5117237;27;21052;-69
2023/09/30 08:50:32;;;;;;;7.30;3.97;;;19.00;1.00;;;;;;5112268;27;20463;-71
2023/09/30 08:53:01;;;;;;;8.73;3.30;;;19.10;1.00;;;;;;5114469;27;20458;-69
2023/09/30 08:55:29;;;;;;;6.53;3.30;;;19.30;1.00;;;;;;5116228;27;20479;-69
2023/09/30 08:57:57;;;;;;;9.90;4.07;;;19.80;1.00;;;;;;5114462;27;20996;-69
2023/09/30 09:00:24;;;;;;;6.20;3.43;;;20.50;1.00;;;;;;5114439;27;20568;-69
2023/09/30 09:02:51;;;;;;;7.93;3.50;;;20.80;1.00;;;;;;5117105;27;20461;-75
2023/09/30 09:05:20;;;;;;;9.20;4.30;;;20.70;1.00;;;;;;5098230;27;20491;-74
2023/09/30 09:07:47;;;;;;;9.90;4.43;;;20.30;1.00;;;;;;5096779;28;20452;-75
2023/09/30 09:10:14;;;;;;;7.67;3.10;;;19.90;1.00;;;;;;5105851;27;20478;-75
2023/09/30 09:12:42;;;;;;;5.93;2.80;;;19.80;1.00;;;;;;5116751;27;20547;-75
2023/09/30 09:15:21;;;;;;;6.80;3.70;;;20.90;1.00;;;;;;5114037;27;20462;-74
2023/09/30 09:17:50;;;;;;;6.10;3.77;;;22.40;1.00;;;;;;5116428;27;20910;-76
2023/09/30 09:20:20;;;;;;;8.20;3.97;;;23.50;1.00;;;;;;5109203;27;20472;-75
2023/09/30 09:22:49;;;;;;;6.73;3.37;;;24.30;1.00;;;;;;5111443;27;20972;-73
2023/09/30 09:25:16;;;;;;;10.30;3.50;;;24.90;1.00;;;;;;5115577;27;20453;-74
2023/09/30 09:27:44;;;;;;;6.93;3.30;;;25.40;1.00;;;;;;5111072;27;20887;-75
2023/09/30 09:30:18;;;;;;;7.57;4.40;;;26.20;1.00;;;;;;5110318;27;20568;-75
2023/09/30 09:33:05;;;;;;;10.67;3.47;;;26.90;1.00;;;;;;5110718;27;20557;-74
2023/09/30 09:35:35;;;;;;;7.10;3.40;;;26.60;1.00;;;;;;5095049;28;20431;-76
2023/09/30 09:38:04;;;;;;;8.13;3.20;;;26.10;1.00;;;;;;5114087;27;20860;-74
2023/09/30 09:40:32;;;;;;;6.50;2.77;;;25.50;1.00;;;;;;5105623;27;20948;-76
2023/09/30 09:43:04;;;;;;;10.80;3.50;;;25.40;1.00;;;;;;5111190;27;20456;-73
2023/09/30 09:45:32;;;;;;;9.07;3.20;;;25.00;1.00;;;;;;5114791;27;20559;-75
2023/09/30 09:48:00;;;;;;;10.27;3.63;;;25.00;1.00;;;;;;5110067;27;20463;-75
2023/09/30 09:50:27;;;;;;;6.00;3.23;;;25.50;1.00;;;;;;5088163;27;20914;-74
2023/09/30 09:52:58;;;;;;;6.97;3.40;;;25.80;1.00;;;;;;5105014;27;20986;-75
2023/09/30 09:55:28;;;;;;;7.03;3.13;;;25.30;1.00;;;;;;5092605;27;20477;-77
2023/09/30 09:57:57;;;;;;;12.20;3.63;;;24.90;1.00;;;;;;5094534;28;20504;-77
2023/09/30 10:00:26;;;;;;;4.53;2.37;;;24.60;1.00;;;;;;5105805;27;20516;-76
2023/09/30 10:02:56;;;;;;;5.27;2.80;;;24.20;1.00;;;;;;5102283;27;20469;-78
2023/09/30 10:05:23;;;;;;;7.70;3.13;;;23.80;1.00;;;;;;5102339;27;20466;-76
2023/09/30 10:07:55;;;;;;;7.40;2.97;;;23.70;1.00;;;;;;5089335;28;20440;-73
2023/09/30 10:10:25;;;;;;;6.60;3.10;;;24.00;1.00;;;;;;5076810;27;20454;-75
2023/09/30 10:12:52;;;;;;;8.07;3.53;;;25.20;1.00;;;;;;5096135;27;20455;-73
2023/09/30 10:15:40;;;;;;;7.07;3.00;;;25.60;1.00;;;;;;5090443;27;20457;-73
2023/09/30 10:18:09;;;;;;;8.13;2.73;;;26.80;1.00;;;;;;5093981;27;20460;-70
2023/09/30 10:20:37;;;;;;;8.27;3.50;;;27.50;1.00;;;;;;5097523;28;21399;-67
2023/09/30 10:23:25;;;;;;;9.27;3.87;;;27.90;1.00;;;;;;5091970;27;20546;-70
2023/09/30 10:26:17;;;;;;;5.40;3.10;;;28.30;1.00;;;;;;5093206;27;20462;-70
2023/09/30 10:28:46;;;;;;;7.73;3.60;;;27.60;1.00;;;;;;5091283;27;20471;-70
2023/09/30 10:31:16;;;;;;;5.70;3.00;;;26.80;1.00;;;;;;5092828;27;20565;-70
2023/09/30 10:34:20;;;;;;;4.43;3.13;;;26.60;1.00;;;;;;5087355;27;20468;-70
2023/09/30 10:36:50;;;;;;;7.20;3.20;;;26.70;1.00;;;;;;5082598;27;20544;-71
2023/09/30 10:39:54;;;;;;;5.37;2.40;;;27.70;1.00;;;;;;5074559;27;20448;-71
2023/09/30 10:42:54;;;;;;;6.30;2.67;;;28.30;1.00;;;;;;5090172;28;20542;-70
2023/09/30 10:45:44;;;;;;;6.57;2.30;;;27.90;1.00;;;;;;5038574;28;20464;-70
2023/09/30 10:48:34;;;;;;;3.80;2.60;;;27.80;1.00;;;;;;5088625;27;20454;-71
2023/09/30 10:51:10;;;;;;;4.23;2.27;;;28.60;1.00;;;;;;5082221;28;20450;-70
2023/09/30 10:53:46;;;;;;;6.20;3.10;;;29.40;1.00;;;;;;5079273;27;20938;-74
2023/09/30 10:56:15;;;;;;;3.80;2.43;;;29.40;1.00;;;;;;5093080;28;20461;-71
2023/09/30 10:58:44;;;;;;;6.63;2.90;;;29.40;1.00;;;;;;5084384;28;20494;-71
2023/09/30 11:01:11;;;;;;;6.37;3.07;;;29.40;1.00;;;;;;5092748;27;20573;-71
2023/09/30 11:03:38;;;;;;;4.73;2.90;;;29.20;1.00;;;;;;5098383;27;22142;-71
2023/09/30 11:06:05;;;;;;;7.57;3.10;;;27.60;1.00;;;;;;5114255;27;20489;-70
2023/09/30 11:08:33;;;;;;;7.40;2.90;;;27.20;1.00;;;;;;5093894;27;21055;-70
2023/09/30 11:11:02;;;;;;;4.50;2.47;;;28.00;1.00;;;;;;5103759;27;20504;-70
2023/09/30 11:13:35;;;;;;;7.73;2.70;;;29.60;1.00;;;;;;5104795;27;20490;-70
2023/09/30 11:16:04;;;;;;;3.33;2.10;;;31.00;1.00;;;;;;5110055;27;20555;-71
2023/09/30 11:18:32;;;;;;;6.17;2.17;;;31.40;1.00;;;;;;5110024;27;20459;-71
2023/09/30 11:21:07;;;;;;;4.17;2.03;;;29.70;1.00;;;;;;5108322;27;20464;-70
2023/09/30 11:23:34;;;;;;;3.50;2.20;;;29.10;1.00;;;;;;5110500;27;20970;-70
2023/09/30 11:26:01;;;;;;;4.43;2.43;;;30.20;1.00;;;;;;5117242;27;20939;-73
2023/09/30 11:28:39;;;;;;;5.40;2.40;;;30.50;1.00;;;;;;5111897;27;20459;-70
2023/09/30 11:31:10;;;;;;;5.70;2.80;;;29.20;1.00;;;;;;5111663;27;20904;-72
2023/09/30 11:33:51;;;;;;;4.90;2.40;;;29.20;1.00;;;;;;5110333;27;20499;-71
2023/09/30 11:36:20;;;;;;;4.73;2.30;;;29.40;1.00;;;;;;5114554;27;20556;-71
2023/09/30 11:38:48;;;;;;;7.33;2.60;;;29.00;1.00;;;;;;5112880;27;20457;-71
2023/09/30 11:41:18;;;;;;;4.63;2.57;;;29.00;1.00;;;;;;5115766;27;20468;-70
2023/09/30 11:44:04;;;;;;;3.97;2.53;;;29.40;1.00;;;;;;5111496;27;20546;-71
2023/09/30 11:46:33;;;;;;;6.80;2.80;;;29.30;1.00;;;;;;5089477;28;20574;-70
2023/09/30 11:49:01;;;;;;;4.93;3.10;;;29.90;1.00;;;;;;5099133;27;20425;-71
2023/09/30 11:51:31;;;;;;;5.93;2.97;;;30.60;1.00;;;;;;5106042;27;20467;-72
2023/09/30 11:53:58;;;;;;;5.60;2.43;;;31.30;1.00;;;;;;5110862;27;20938;-71
2023/09/30 11:56:29;;;;;;;7.07;3.00;;;32.20;1.00;;;;;;5113836;27;20548;-70
2023/09/30 11:58:58;;;;;;;4.70;2.10;;;32.90;1.00;;;;;;5103442;27;20558;-72
2023/09/30 12:01:30;;;;;;;6.30;4.10;;;32.70;1.00;;;;;;5102935;27;20803;-71
2023/09/30 12:03:57;;;;;;;3.37;2.07;;;31.40;1.00;;;;;;5114771;27;20983;-71
2023/09/30 12:06:24;;;;;;;3.43;2.10;;;30.40;1.00;;;;;;5110510;27;20545;-71
2023/09/30 12:08:53;;;;;;;6.93;4.43;;;30.50;1.00;;;;;;5105327;27;20589;-71
2023/09/30 12:11:23;;;;;;;5.83;2.10;;;30.90;1.00;;;;;;5102666;27;20509;-70
2023/09/30 12:13:51;;;;;;;5.83;2.80;;;31.80;1.00;;;;;;5101864;27;20462;-70
2023/09/30 12:16:18;;;;;;;5.47;2.40;;;32.40;1.00;;;;;;5095825;27;20528;-70
2023/09/30 12:18:50;;;;;;;6.73;2.40;;;32.30;1.00;;;;;;5110176;27;20823;-71
2023/09/30 12:21:19;;;;;;;5.03;2.30;;;32.20;1.00;;;;;;5100967;27;21062;-71
2023/09/30 12:23:48;;;;;;;4.57;2.30;;;32.40;1.00;;;;;;5102409;27;20500;-71
2023/09/30 12:26:17;;;;;;;5.40;2.83;;;32.70;1.00;;;;;;5095732;27;20461;-71
2023/09/30 12:28:44;;;;;;;4.30;2.70;;;32.90;1.00;;;;;;5102513;27;20465;-70
2023/09/30 12:31:11;;;;;;;4.10;2.47;;;33.10;1.00;;;;;;5097645;27;20588;-73
2023/09/30 12:33:39;;;;;;;3.20;1.63;;;32.90;1.00;;;;;;5095458;27;20477;-74
2023/09/30 12:36:07;;;;;;;9.80;2.53;;;32.60;1.00;;;;;;5114541;27;20453;-74
2023/09/30 12:38:35;;;;;;;5.13;2.70;;;31.90;1.00;;;;;;5098075;27;20462;-74
2023/09/30 12:41:03;;;;;;;5.03;2.10;;;30.20;1.00;;;;;;5113069;27;20462;-73
2023/09/30 12:43:30;;;;;;;5.03;2.30;;;28.60;1.00;;;;;;5104713;27;20476;-72
2023/09/30 12:45:57;;;;;;;4.80;2.53;;;27.30;1.00;;;;;;5102009;27;20547;-74
2023/09/30 12:48:24;;;;;;;3.80;2.50;;;26.70;1.00;;;;;;5113675;27;20463;-75
2023/09/30 12:50:51;;;;;;;3.03;2.10;;;26.60;1.00;;;;;;5114968;27;20953;-74
2023/09/30 12:53:20;;;;;;;4.50;1.97;;;26.30;1.00;;;;;;5114881;27;21262;-75
2023/09/30 12:55:48;;;;;;;68.77;3.27;;;25.80;1.00;;;;;;5116178;27;20552;-74
2023/09/30 12:58:15;;;;;;;2.90;2.17;;;25.30;1.00;;;;;;5107080;27;20965;-74
2023/09/30 13:00:41;;;;;;;4.67;3.10;;;24.70;1.00;;;;;;5102917;27;20463;-75